sensor_id;sensor_type;location;lat;lon;timestamp;P1;durP1;ratioP1;P2;durP2;ratioP2
10659;SDS011;5378;53.206;13.316;2022-11-15T00:02:01;79.33;;;26.77;;
10659;SDS011;5378;53.206;13.316;2022-11-15T00:05:08;74.83;;;25.37;;
10659;SDS011;5378;53.206;13.316;2022-11-15T00:08:15;72.30;;;24.87;;
10659;SDS011;5378;53.206;13.316;2022-11-15T00:11:20;81.53;;;26.87;;
10659;SDS011;5378;53.206;13.316;2022-11-15T00:14:26;73.73;;;26.57;;
10659;SDS011;5378;53.206;13.316;2022-11-15T00:17:31;85.33;;;25.67;;
10659;SDS011;5378;53.206;13.316;2022-11-15T00:20:37;76.83;;;24.40;;
10659;SDS011;5378;53.206;13.316;2022-11-15T00:23:44;82.70;;;25.17;;
10659;SDS011;5378;53.206;13.316;2022-11-15T00:26:49;71.83;;;25.80;;
10659;SDS011;5378;53.206;13.316;2022-11-15T00:29:55;65.23;;;26.30;;
10659;SDS011;5378;53.206;13.316;2022-11-15T00:33:01;73.63;;;27.50;;
10659;SDS011;5378;53.206;13.316;2022-11-15T00:36:08;67.80;;;23.50;;
10659;SDS011;5378;53.206;13.316;2022-11-15T00:39:16;82.30;;;26.43;;
10659;SDS011;5378;53.206;13.316;2022-11-15T00:42:21;76.80;;;25.30;;
10659;SDS011;5378;53.206;13.316;2022-11-15T00:45:27;74.17;;;25.50;;
10659;SDS011;5378;53.206;13.316;2022-11-15T00:48:32;70.10;;;24.10;;
10659;SDS011;5378;53.206;13.316;2022-11-15T00:51:38;79.17;;;25.80;;
10659;SDS011;5378;53.206;13.316;2022-11-15T00:54:44;72.50;;;24.33;;
10659;SDS011;5378;53.206;13.316;2022-11-15T00:57:50;75.63;;;25.33;;
10659;SDS011;5378;53.206;13.316;2022-11-15T01:00:55;70.77;;;26.37;;
10659;SDS011;5378;53.206;13.316;2022-11-15T01:04:01;61.13;;;24.30;;
10659;SDS011;5378;53.206;13.316;2022-11-15T01:07:07;60.90;;;24.90;;
10659;SDS011;5378;53.206;13.316;2022-11-15T01:10:14;70.00;;;24.77;;
10659;SDS011;5378;53.206;13.316;2022-11-15T01:13:19;71.50;;;25.60;;
10659;SDS011;5378;53.206;13.316;2022-11-15T01:16:25;69.90;;;24.50;;
10659;SDS011;5378;53.206;13.316;2022-11-15T01:19:30;73.63;;;25.00;;
10659;SDS011;5378;53.206;13.316;2022-11-15T01:22:36;64.47;;;24.70;;
10659;SDS011;5378;53.206;13.316;2022-11-15T01:25:43;83.33;;;25.03;;
10659;SDS011;5378;53.206;13.316;2022-11-15T01:28:48;67.83;;;23.60;;
10659;SDS011;5378;53.206;13.316;2022-11-15T01:31:54;73.40;;;27.03;;
10659;SDS011;5378;53.206;13.316;2022-11-15T01:34:59;68.57;;;24.90;;
10659;SDS011;5378;53.206;13.316;2022-11-15T01:38:05;73.93;;;25.73;;
10659;SDS011;5378;53.206;13.316;2022-11-15T01:41:19;71.80;;;25.93;;
10659;SDS011;5378;53.206;13.316;2022-11-15T01:44:40;77.83;;;26.53;;
10659;SDS011;5378;53.206;13.316;2022-11-15T01:47:48;70.77;;;24.97;;
10659;SDS011;5378;53.206;13.316;2022-11-15T01:50:57;68.60;;;22.87;;
10659;SDS011;5378;53.206;13.316;2022-11-15T01:54:03;65.33;;;23.20;;
10659;SDS011;5378;53.206;13.316;2022-11-15T01:57:14;84.83;;;26.07;;
10659;SDS011;5378;53.206;13.316;2022-11-15T02:00:20;66.33;;;25.23;;
10659;SDS011;5378;53.206;13.316;2022-11-15T02:03:26;62.93;;;24.90;;
10659;SDS011;5378;53.206;13.316;2022-11-15T02:06:40;61.10;;;24.10;;
10659;SDS011;5378;53.206;13.316;2022-11-15T02:09:47;72.77;;;24.13;;
10659;SDS011;5378;53.206;13.316;2022-11-15T02:12:55;75.50;;;26.57;;
10659;SDS011;5378;53.206;13.316;2022-11-15T02:16:03;66.80;;;24.10;;
10659;SDS011;5378;53.206;13.316;2022-11-15T02:19:22;62.17;;;22.97;;
10659;SDS011;5378;53.206;13.316;2022-11-15T02:23:00;61.87;;;23.40;;
10659;SDS011;5378;53.206;13.316;2022-11-15T02:26:24;55.43;;;23.77;;
10659;SDS011;5378;53.206;13.316;2022-11-15T02:29:59;63.50;;;25.47;;
10659;SDS011;5378;53.206;13.316;2022-11-15T02:33:14;58.97;;;23.67;;
10659;SDS011;5378;53.206;13.316;2022-11-15T02:36:34;55.90;;;23.13;;
10659;SDS011;5378;53.206;13.316;2022-11-15T02:39:46;73.33;;;25.07;;
10659;SDS011;5378;53.206;13.316;2022-11-15T02:42:57;59.80;;;23.43;;
10659;SDS011;5378;53.206;13.316;2022-11-15T02:46:26;68.10;;;21.80;;
10659;SDS011;5378;53.206;13.316;2022-11-15T02:49:56;68.40;;;26.10;;
10659;SDS011;5378;53.206;13.316;2022-11-15T02:53:05;64.90;;;22.83;;
10659;SDS011;5378;53.206;13.316;2022-11-15T02:56:12;60.33;;;22.20;;
10659;SDS011;5378;53.206;13.316;2022-11-15T02:59:21;59.30;;;22.53;;
10659;SDS011;5378;53.206;13.316;2022-11-15T03:02:41;67.73;;;23.43;;
10659;SDS011;5378;53.206;13.316;2022-11-15T03:06:00;54.93;;;22.43;;
10659;SDS011;5378;53.206;13.316;2022-11-15T03:09:13;63.07;;;23.87;;
10659;SDS011;5378;53.206;13.316;2022-11-15T03:12:34;57.47;;;20.33;;
10659;SDS011;5378;53.206;13.316;2022-11-15T03:15:49;57.53;;;21.50;;
10659;SDS011;5378;53.206;13.316;2022-11-15T03:19:03;60.47;;;23.27;;
10659;SDS011;5378;53.206;13.316;2022-11-15T03:22:14;62.43;;;22.23;;
10659;SDS011;5378;53.206;13.316;2022-11-15T03:25:22;61.80;;;23.90;;
10659;SDS011;5378;53.206;13.316;2022-11-15T03:28:32;58.20;;;22.10;;
10659;SDS011;5378;53.206;13.316;2022-11-15T03:31:43;61.20;;;21.70;;
10659;SDS011;5378;53.206;13.316;2022-11-15T03:34:53;54.00;;;21.60;;
10659;SDS011;5378;53.206;13.316;2022-11-15T03:38:05;55.80;;;22.43;;
10659;SDS011;5378;53.206;13.316;2022-11-15T03:41:17;73.00;;;23.10;;
10659;SDS011;5378;53.206;13.316;2022-11-15T03:44:31;52.67;;;23.00;;
10659;SDS011;5378;53.206;13.316;2022-11-15T03:47:45;53.00;;;23.00;;
10659;SDS011;5378;53.206;13.316;2022-11-15T03:50:56;65.50;;;24.07;;
10659;SDS011;5378;53.206;13.316;2022-11-15T03:54:03;67.57;;;25.27;;
10659;SDS011;5378;53.206;13.316;2022-11-15T03:57:10;61.30;;;24.10;;
10659;SDS011;5378;53.206;13.316;2022-11-15T04:00:16;64.10;;;23.40;;
10659;SDS011;5378;53.206;13.316;2022-11-15T04:03:22;70.47;;;24.27;;
10659;SDS011;5378;53.206;13.316;2022-11-15T04:06:28;63.83;;;23.37;;
10659;SDS011;5378;53.206;13.316;2022-11-15T04:09:35;70.93;;;25.17;;
10659;SDS011;5378;53.206;13.316;2022-11-15T04:13:01;62.97;;;24.57;;
10659;SDS011;5378;53.206;13.316;2022-11-15T04:16:08;73.20;;;26.70;;
10659;SDS011;5378;53.206;13.316;2022-11-15T04:19:13;56.80;;;23.03;;
10659;SDS011;5378;53.206;13.316;2022-11-15T04:22:36;56.40;;;22.27;;
10659;SDS011;5378;53.206;13.316;2022-11-15T04:26:03;62.67;;;22.70;;
10659;SDS011;5378;53.206;13.316;2022-11-15T04:29:11;57.57;;;22.13;;
10659;SDS011;5378;53.206;13.316;2022-11-15T04:32:34;57.07;;;23.40;;
10659;SDS011;5378;53.206;13.316;2022-11-15T04:35:40;60.10;;;23.50;;
10659;SDS011;5378;53.206;13.316;2022-11-15T04:38:47;73.03;;;24.23;;
10659;SDS011;5378;53.206;13.316;2022-11-15T04:41:53;59.33;;;23.10;;
10659;SDS011;5378;53.206;13.316;2022-11-15T04:44:58;58.33;;;23.30;;
10659;SDS011;5378;53.206;13.316;2022-11-15T04:48:04;52.00;;;20.90;;
10659;SDS011;5378;53.206;13.316;2022-11-15T04:51:10;56.30;;;22.23;;
10659;SDS011;5378;53.206;13.316;2022-11-15T04:54:15;69.47;;;23.97;;
10659;SDS011;5378;53.206;13.316;2022-11-15T04:57:23;56.93;;;23.47;;
10659;SDS011;5378;53.206;13.316;2022-11-15T05:00:28;56.10;;;22.30;;
10659;SDS011;5378;53.206;13.316;2022-11-15T05:03:34;67.33;;;23.30;;
10659;SDS011;5378;53.206;13.316;2022-11-15T05:06:58;52.57;;;21.90;;
10659;SDS011;5378;53.206;13.316;2022-11-15T05:10:04;58.10;;;22.73;;
10659;SDS011;5378;53.206;13.316;2022-11-15T05:13:12;56.87;;;22.47;;
10659;SDS011;5378;53.206;13.316;2022-11-15T05:16:17;59.80;;;21.50;;
10659;SDS011;5378;53.206;13.316;2022-11-15T05:19:23;64.37;;;25.57;;
10659;SDS011;5378;53.206;13.316;2022-11-15T05:22:29;61.10;;;25.40;;
10659;SDS011;5378;53.206;13.316;2022-11-15T05:25:35;64.17;;;25.53;;
10659;SDS011;5378;53.206;13.316;2022-11-15T05:28:42;58.70;;;24.23;;
10659;SDS011;5378;53.206;13.316;2022-11-15T05:31:48;48.67;;;21.40;;
10659;SDS011;5378;53.206;13.316;2022-11-15T05:34:54;60.37;;;24.17;;
10659;SDS011;5378;53.206;13.316;2022-11-15T05:38:00;59.23;;;23.07;;
10659;SDS011;5378;53.206;13.316;2022-11-15T05:41:06;62.73;;;23.13;;
10659;SDS011;5378;53.206;13.316;2022-11-15T05:44:14;69.10;;;22.87;;
10659;SDS011;5378;53.206;13.316;2022-11-15T05:47:25;48.20;;;19.17;;
10659;SDS011;5378;53.206;13.316;2022-11-15T05:50:34;60.60;;;21.47;;
10659;SDS011;5378;53.206;13.316;2022-11-15T05:53:41;53.27;;;20.87;;
10659;SDS011;5378;53.206;13.316;2022-11-15T05:56:48;50.23;;;20.63;;
10659;SDS011;5378;53.206;13.316;2022-11-15T05:59:55;60.43;;;21.47;;
10659;SDS011;5378;53.206;13.316;2022-11-15T06:03:00;52.70;;;22.03;;
10659;SDS011;5378;53.206;13.316;2022-11-15T06:06:06;58.90;;;22.97;;
10659;SDS011;5378;53.206;13.316;2022-11-15T06:09:15;60.47;;;21.33;;
10659;SDS011;5378;53.206;13.316;2022-11-15T06:12:20;59.07;;;22.40;;
10659;SDS011;5378;53.206;13.316;2022-11-15T06:15:27;61.37;;;24.20;;
10659;SDS011;5378;53.206;13.316;2022-11-15T06:18:34;51.00;;;21.53;;
10659;SDS011;5378;53.206;13.316;2022-11-15T06:21:40;49.87;;;21.43;;
10659;SDS011;5378;53.206;13.316;2022-11-15T06:24:46;51.53;;;19.57;;
10659;SDS011;5378;53.206;13.316;2022-11-15T06:27:52;54.53;;;21.57;;
10659;SDS011;5378;53.206;13.316;2022-11-15T06:31:03;51.77;;;20.60;;
10659;SDS011;5378;53.206;13.316;2022-11-15T06:34:09;88.00;;;21.40;;
10659;SDS011;5378;53.206;13.316;2022-11-15T06:37:15;65.23;;;21.77;;
10659;SDS011;5378;53.206;13.316;2022-11-15T06:40:21;56.13;;;21.10;;
10659;SDS011;5378;53.206;13.316;2022-11-15T06:43:26;57.23;;;20.70;;
10659;SDS011;5378;53.206;13.316;2022-11-15T06:46:33;60.80;;;19.10;;
10659;SDS011;5378;53.206;13.316;2022-11-15T06:49:38;53.97;;;19.70;;
10659;SDS011;5378;53.206;13.316;2022-11-15T06:52:44;47.30;;;19.17;;
10659;SDS011;5378;53.206;13.316;2022-11-15T06:55:50;51.93;;;20.70;;
10659;SDS011;5378;53.206;13.316;2022-11-15T06:58:58;48.70;;;20.67;;
10659;SDS011;5378;53.206;13.316;2022-11-15T07:02:05;46.57;;;18.87;;
10659;SDS011;5378;53.206;13.316;2022-11-15T07:05:11;44.97;;;19.00;;
10659;SDS011;5378;53.206;13.316;2022-11-15T07:08:18;40.67;;;17.03;;
10659;SDS011;5378;53.206;13.316;2022-11-15T07:11:24;51.67;;;19.70;;
10659;SDS011;5378;53.206;13.316;2022-11-15T07:14:30;52.70;;;19.57;;
10659;SDS011;5378;53.206;13.316;2022-11-15T07:17:37;47.80;;;20.47;;
10659;SDS011;5378;53.206;13.316;2022-11-15T07:20:42;50.30;;;19.90;;
10659;SDS011;5378;53.206;13.316;2022-11-15T07:23:47;41.13;;;18.17;;
10659;SDS011;5378;53.206;13.316;2022-11-15T07:26:53;43.87;;;19.20;;
10659;SDS011;5378;53.206;13.316;2022-11-15T07:29:58;47.57;;;19.63;;
10659;SDS011;5378;53.206;13.316;2022-11-15T07:33:05;41.23;;;19.03;;
10659;SDS011;5378;53.206;13.316;2022-11-15T07:36:11;33.93;;;15.97;;
10659;SDS011;5378;53.206;13.316;2022-11-15T07:39:16;44.03;;;18.43;;
10659;SDS011;5378;53.206;13.316;2022-11-15T07:42:22;35.30;;;16.70;;
10659;SDS011;5378;53.206;13.316;2022-11-15T07:45:46;46.80;;;18.43;;
10659;SDS011;5378;53.206;13.316;2022-11-15T07:48:52;42.33;;;17.90;;
10659;SDS011;5378;53.206;13.316;2022-11-15T07:51:58;41.53;;;17.50;;
10659;SDS011;5378;53.206;13.316;2022-11-15T07:55:04;43.10;;;17.93;;
10659;SDS011;5378;53.206;13.316;2022-11-15T07:58:10;45.63;;;19.27;;
10659;SDS011;5378;53.206;13.316;2022-11-15T08:01:17;42.13;;;16.10;;
10659;SDS011;5378;53.206;13.316;2022-11-15T08:04:24;41.73;;;17.70;;
10659;SDS011;5378;53.206;13.316;2022-11-15T08:07:29;37.50;;;17.50;;
10659;SDS011;5378;53.206;13.316;2022-11-15T08:10:35;40.33;;;18.20;;
10659;SDS011;5378;53.206;13.316;2022-11-15T08:13:43;40.70;;;15.60;;
10659;SDS011;5378;53.206;13.316;2022-11-15T08:16:49;34.47;;;16.87;;
10659;SDS011;5378;53.206;13.316;2022-11-15T08:19:55;38.37;;;17.00;;
10659;SDS011;5378;53.206;13.316;2022-11-15T08:23:02;33.83;;;15.30;;
10659;SDS011;5378;53.206;13.316;2022-11-15T08:26:09;39.40;;;17.80;;
10659;SDS011;5378;53.206;13.316;2022-11-15T08:29:14;41.97;;;17.90;;
10659;SDS011;5378;53.206;13.316;2022-11-15T08:32:20;40.40;;;16.80;;
10659;SDS011;5378;53.206;13.316;2022-11-15T08:35:27;37.97;;;17.40;;
10659;SDS011;5378;53.206;13.316;2022-11-15T08:38:33;42.17;;;16.33;;
10659;SDS011;5378;53.206;13.316;2022-11-15T08:41:39;38.53;;;17.50;;
10659;SDS011;5378;53.206;13.316;2022-11-15T08:44:44;36.73;;;16.00;;
10659;SDS011;5378;53.206;13.316;2022-11-15T08:47:50;36.17;;;16.00;;
10659;SDS011;5378;53.206;13.316;2022-11-15T08:50:58;43.23;;;17.03;;
10659;SDS011;5378;53.206;13.316;2022-11-15T08:54:04;43.30;;;18.88;;
10659;SDS011;5378;53.206;13.316;2022-11-15T08:57:09;42.10;;;17.60;;
10659;SDS011;5378;53.206;13.316;2022-11-15T09:00:15;41.13;;;16.63;;
10659;SDS011;5378;53.206;13.316;2022-11-15T09:03:24;36.23;;;16.53;;
10659;SDS011;5378;53.206;13.316;2022-11-15T09:06:31;42.43;;;17.40;;
10659;SDS011;5378;53.206;13.316;2022-11-15T09:09:37;41.17;;;16.73;;
10659;SDS011;5378;53.206;13.316;2022-11-15T09:12:43;34.40;;;16.43;;
10659;SDS011;5378;53.206;13.316;2022-11-15T09:15:52;39.93;;;17.20;;
10659;SDS011;5378;53.206;13.316;2022-11-15T09:18:57;39.00;;;16.47;;
10659;SDS011;5378;53.206;13.316;2022-11-15T09:22:06;36.30;;;16.10;;
10659;SDS011;5378;53.206;13.316;2022-11-15T09:25:13;38.53;;;17.97;;
10659;SDS011;5378;53.206;13.316;2022-11-15T09:28:18;37.73;;;16.70;;
10659;SDS011;5378;53.206;13.316;2022-11-15T09:31:24;41.30;;;17.57;;
10659;SDS011;5378;53.206;13.316;2022-11-15T09:34:29;38.43;;;17.57;;
10659;SDS011;5378;53.206;13.316;2022-11-15T09:37:37;34.50;;;15.97;;
10659;SDS011;5378;53.206;13.316;2022-11-15T09:40:42;36.43;;;17.57;;
10659;SDS011;5378;53.206;13.316;2022-11-15T09:43:50;40.10;;;18.20;;
10659;SDS011;5378;53.206;13.316;2022-11-15T09:47:05;36.30;;;17.20;;
10659;SDS011;5378;53.206;13.316;2022-11-15T09:50:38;47.03;;;20.23;;
10659;SDS011;5378;53.206;13.316;2022-11-15T09:53:31;39.20;;;17.20;;
10659;SDS011;5378;53.206;13.316;2022-11-15T09:56:44;39.73;;;19.60;;
10659;SDS011;5378;53.206;13.316;2022-11-15T09:59:40;39.53;;;16.90;;
10659;SDS011;5378;53.206;13.316;2022-11-15T10:02:36;39.93;;;17.30;;
10659;SDS011;5378;53.206;13.316;2022-11-15T10:05:46;48.67;;;18.57;;
10659;SDS011;5378;53.206;13.316;2022-11-15T10:08:40;40.80;;;16.80;;
10659;SDS011;5378;53.206;13.316;2022-11-15T10:11:36;44.67;;;19.43;;
10659;SDS011;5378;53.206;13.316;2022-11-15T10:14:26;36.97;;;16.93;;
10659;SDS011;5378;53.206;13.316;2022-11-15T10:17:20;37.80;;;17.50;;
10659;SDS011;5378;53.206;13.316;2022-11-15T10:20:21;44.30;;;18.10;;
10659;SDS011;5378;53.206;13.316;2022-11-15T10:23:10;43.40;;;19.23;;
10659;SDS011;5378;53.206;13.316;2022-11-15T10:26:00;41.60;;;17.93;;
10659;SDS011;5378;53.206;13.316;2022-11-15T10:28:51;44.27;;;19.27;;
10659;SDS011;5378;53.206;13.316;2022-11-15T10:31:38;42.57;;;18.83;;
10659;SDS011;5378;53.206;13.316;2022-11-15T10:34:27;35.50;;;16.10;;
10659;SDS011;5378;53.206;13.316;2022-11-15T10:37:14;46.93;;;18.20;;
10659;SDS011;5378;53.206;13.316;2022-11-15T10:40:05;50.17;;;18.70;;
10659;SDS011;5378;53.206;13.316;2022-11-15T10:43:04;46.20;;;18.07;;
10659;SDS011;5378;53.206;13.316;2022-11-15T10:45:59;41.97;;;18.13;;
10659;SDS011;5378;53.206;13.316;2022-11-15T10:49:24;39.63;;;17.63;;
10659;SDS011;5378;53.206;13.316;2022-11-15T10:52:15;41.00;;;17.83;;
10659;SDS011;5378;53.206;13.316;2022-11-15T10:55:20;45.73;;;17.67;;
10659;SDS011;5378;53.206;13.316;2022-11-15T10:58:20;48.23;;;19.90;;
10659;SDS011;5378;53.206;13.316;2022-11-15T11:01:15;45.17;;;18.23;;
10659;SDS011;5378;53.206;13.316;2022-11-15T11:04:04;44.50;;;19.17;;
10659;SDS011;5378;53.206;13.316;2022-11-15T11:06:53;43.90;;;18.30;;
10659;SDS011;5378;53.206;13.316;2022-11-15T11:09:41;42.23;;;17.87;;
10659;SDS011;5378;53.206;13.316;2022-11-15T11:12:30;44.10;;;18.50;;
10659;SDS011;5378;53.206;13.316;2022-11-15T11:15:19;43.87;;;18.30;;
10659;SDS011;5378;53.206;13.316;2022-11-15T11:18:07;43.30;;;18.07;;
10659;SDS011;5378;53.206;13.316;2022-11-15T11:21:02;40.20;;;18.57;;
10659;SDS011;5378;53.206;13.316;2022-11-15T11:23:54;47.37;;;18.47;;
10659;SDS011;5378;53.206;13.316;2022-11-15T11:26:46;49.80;;;18.43;;
10659;SDS011;5378;53.206;13.316;2022-11-15T11:29:46;40.67;;;17.20;;
10659;SDS011;5378;53.206;13.316;2022-11-15T11:32:57;37.07;;;17.77;;
10659;SDS011;5378;53.206;13.316;2022-11-15T11:35:57;41.50;;;17.20;;
10659;SDS011;5378;53.206;13.316;2022-11-15T11:38:51;46.43;;;19.63;;
10659;SDS011;5378;53.206;13.316;2022-11-15T11:41:49;42.60;;;18.00;;
10659;SDS011;5378;53.206;13.316;2022-11-15T11:44:45;33.47;;;16.60;;
10659;SDS011;5378;53.206;13.316;2022-11-15T11:47:37;38.27;;;16.20;;
10659;SDS011;5378;53.206;13.316;2022-11-15T11:50:27;36.63;;;16.57;;
10659;SDS011;5378;53.206;13.316;2022-11-15T11:53:15;36.20;;;16.27;;
10659;SDS011;5378;53.206;13.316;2022-11-15T11:56:17;37.30;;;17.53;;
10659;SDS011;5378;53.206;13.316;2022-11-15T11:59:10;36.23;;;17.20;;
10659;SDS011;5378;53.206;13.316;2022-11-15T12:02:02;36.70;;;15.93;;
10659;SDS011;5378;53.206;13.316;2022-11-15T12:05:03;33.47;;;14.90;;
10659;SDS011;5378;53.206;13.316;2022-11-15T12:08:04;38.13;;;17.07;;
10659;SDS011;5378;53.206;13.316;2022-11-15T12:11:07;29.73;;;14.30;;
10659;SDS011;5378;53.206;13.316;2022-11-15T12:13:58;35.23;;;15.70;;
10659;SDS011;5378;53.206;13.316;2022-11-15T12:16:49;31.87;;;14.53;;
10659;SDS011;5378;53.206;13.316;2022-11-15T12:19:36;39.83;;;16.40;;
10659;SDS011;5378;53.206;13.316;2022-11-15T12:22:24;32.03;;;15.60;;
10659;SDS011;5378;53.206;13.316;2022-11-15T12:25:24;31.67;;;15.83;;
10659;SDS011;5378;53.206;13.316;2022-11-15T12:28:18;32.40;;;13.57;;
10659;SDS011;5378;53.206;13.316;2022-11-15T12:31:11;36.10;;;15.70;;
10659;SDS011;5378;53.206;13.316;2022-11-15T12:34:03;34.43;;;15.60;;
10659;SDS011;5378;53.206;13.316;2022-11-15T12:36:59;31.10;;;16.10;;
10659;SDS011;5378;53.206;13.316;2022-11-15T12:49:45;38.07;;;14.73;;
10659;SDS011;5378;53.206;13.316;2022-11-15T12:52:33;27.07;;;13.00;;
10659;SDS011;5378;53.206;13.316;2022-11-15T12:55:30;29.77;;;13.63;;
10659;SDS011;5378;53.206;13.316;2022-11-15T12:58:26;25.00;;;13.03;;
10659;SDS011;5378;53.206;13.316;2022-11-15T13:04:41;27.10;;;12.87;;
10659;SDS011;5378;53.206;13.316;2022-11-15T13:10:43;27.43;;;12.73;;
10659;SDS011;5378;53.206;13.316;2022-11-15T13:13:42;27.10;;;12.97;;
10659;SDS011;5378;53.206;13.316;2022-11-15T13:16:30;30.93;;;13.27;;
10659;SDS011;5378;53.206;13.316;2022-11-15T13:19:17;26.23;;;13.00;;
10659;SDS011;5378;53.206;13.316;2022-11-15T13:22:10;27.73;;;13.93;;
10659;SDS011;5378;53.206;13.316;2022-11-15T13:25:15;31.93;;;14.43;;
10659;SDS011;5378;53.206;13.316;2022-11-15T13:28:09;34.67;;;14.03;;
10659;SDS011;5378;53.206;13.316;2022-11-15T13:30:59;30.30;;;14.10;;
10659;SDS011;5378;53.206;13.316;2022-11-15T13:33:47;36.27;;;14.97;;
10659;SDS011;5378;53.206;13.316;2022-11-15T13:36:34;36.20;;;16.43;;
10659;SDS011;5378;53.206;13.316;2022-11-15T13:39:29;35.33;;;14.50;;
10659;SDS011;5378;53.206;13.316;2022-11-15T13:42:18;46.10;;;18.10;;
10659;SDS011;5378;53.206;13.316;2022-11-15T13:45:11;36.93;;;15.63;;
10659;SDS011;5378;53.206;13.316;2022-11-15T13:48:02;40.23;;;16.00;;
10659;SDS011;5378;53.206;13.316;2022-11-15T13:50:51;33.47;;;15.37;;
10659;SDS011;5378;53.206;13.316;2022-11-15T13:53:39;39.57;;;15.73;;
10659;SDS011;5378;53.206;13.316;2022-11-15T13:56:33;40.23;;;15.87;;
10659;SDS011;5378;53.206;13.316;2022-11-15T13:59:22;39.37;;;16.30;;
10659;SDS011;5378;53.206;13.316;2022-11-15T14:02:12;41.43;;;17.47;;
10659;SDS011;5378;53.206;13.316;2022-11-15T14:05:02;35.97;;;15.87;;
10659;SDS011;5378;53.206;13.316;2022-11-15T14:08:00;47.63;;;18.77;;
10659;SDS011;5378;53.206;13.316;2022-11-15T14:11:04;42.97;;;16.90;;
10659;SDS011;5378;53.206;13.316;2022-11-15T14:14:02;42.27;;;16.73;;
10659;SDS011;5378;53.206;13.316;2022-11-15T14:16:57;41.83;;;17.30;;
10659;SDS011;5378;53.206;13.316;2022-11-15T14:19:46;40.63;;;17.30;;
10659;SDS011;5378;53.206;13.316;2022-11-15T14:22:33;40.03;;;16.13;;
10659;SDS011;5378;53.206;13.316;2022-11-15T14:25:22;36.50;;;16.00;;
10659;SDS011;5378;53.206;13.316;2022-11-15T14:28:28;39.10;;;16.17;;
10659;SDS011;5378;53.206;13.316;2022-11-15T14:31:17;38.37;;;16.57;;
10659;SDS011;5378;53.206;13.316;2022-11-15T14:34:07;42.13;;;16.93;;
10659;SDS011;5378;53.206;13.316;2022-11-15T14:36:55;42.97;;;16.77;;
10659;SDS011;5378;53.206;13.316;2022-11-15T14:39:42;37.03;;;15.30;;
10659;SDS011;5378;53.206;13.316;2022-11-15T14:42:29;42.27;;;16.83;;
10659;SDS011;5378;53.206;13.316;2022-11-15T14:45:17;31.00;;;15.17;;
10659;SDS011;5378;53.206;13.316;2022-11-15T14:48:06;35.43;;;16.00;;
10659;SDS011;5378;53.206;13.316;2022-11-15T14:50:54;41.73;;;17.37;;
10659;SDS011;5378;53.206;13.316;2022-11-15T14:53:41;41.37;;;17.10;;
10659;SDS011;5378;53.206;13.316;2022-11-15T14:56:29;40.93;;;16.73;;
10659;SDS011;5378;53.206;13.316;2022-11-15T14:59:16;36.80;;;15.30;;
10659;SDS011;5378;53.206;13.316;2022-11-15T15:02:07;38.33;;;17.90;;
10659;SDS011;5378;53.206;13.316;2022-11-15T15:05:00;34.93;;;16.27;;
10659;SDS011;5378;53.206;13.316;2022-11-15T15:07:48;36.20;;;15.30;;
10659;SDS011;5378;53.206;13.316;2022-11-15T15:10:37;43.80;;;15.93;;
10659;SDS011;5378;53.206;13.316;2022-11-15T15:13:26;34.57;;;15.40;;
10659;SDS011;5378;53.206;13.316;2022-11-15T15:16:15;43.97;;;18.13;;
10659;SDS011;5378;53.206;13.316;2022-11-15T15:19:02;34.00;;;15.27;;
10659;SDS011;5378;53.206;13.316;2022-11-15T15:21:50;43.73;;;18.20;;
10659;SDS011;5378;53.206;13.316;2022-11-15T15:24:37;41.10;;;16.23;;
10659;SDS011;5378;53.206;13.316;2022-11-15T15:27:25;39.27;;;15.93;;
10659;SDS011;5378;53.206;13.316;2022-11-15T15:30:12;43.07;;;18.53;;
10659;SDS011;5378;53.206;13.316;2022-11-15T15:32:59;42.90;;;16.43;;
10659;SDS011;5378;53.206;13.316;2022-11-15T15:35:46;41.03;;;15.97;;
10659;SDS011;5378;53.206;13.316;2022-11-15T15:38:35;44.23;;;17.80;;
10659;SDS011;5378;53.206;13.316;2022-11-15T15:41:22;33.93;;;15.23;;
10659;SDS011;5378;53.206;13.316;2022-11-15T15:44:09;47.03;;;18.50;;
10659;SDS011;5378;53.206;13.316;2022-11-15T15:46:56;38.50;;;17.67;;
10659;SDS011;5378;53.206;13.316;2022-11-15T15:49:44;53.17;;;19.40;;
10659;SDS011;5378;53.206;13.316;2022-11-15T15:52:31;47.00;;;16.03;;
10659;SDS011;5378;53.206;13.316;2022-11-15T15:55:19;44.73;;;19.47;;
10659;SDS011;5378;53.206;13.316;2022-11-15T15:58:07;45.07;;;16.90;;
10659;SDS011;5378;53.206;13.316;2022-11-15T16:00:54;42.33;;;15.90;;
10659;SDS011;5378;53.206;13.316;2022-11-15T16:03:41;55.77;;;18.70;;
10659;SDS011;5378;53.206;13.316;2022-11-15T16:06:32;41.83;;;15.47;;
10659;SDS011;5378;53.206;13.316;2022-11-15T16:09:23;37.37;;;16.60;;
10659;SDS011;5378;53.206;13.316;2022-11-15T16:12:25;40.20;;;15.57;;
10659;SDS011;5378;53.206;13.316;2022-11-15T16:15:12;49.93;;;15.17;;
10659;SDS011;5378;53.206;13.316;2022-11-15T16:18:00;51.60;;;15.07;;
10659;SDS011;5378;53.206;13.316;2022-11-15T16:20:48;38.60;;;15.50;;
10659;SDS011;5378;53.206;13.316;2022-11-15T16:23:37;37.13;;;14.90;;
10659;SDS011;5378;53.206;13.316;2022-11-15T16:26:25;38.70;;;15.00;;
10659;SDS011;5378;53.206;13.316;2022-11-15T16:29:14;42.00;;;16.17;;
10659;SDS011;5378;53.206;13.316;2022-11-15T16:32:01;44.03;;;14.80;;
10659;SDS011;5378;53.206;13.316;2022-11-15T16:34:48;47.40;;;17.37;;
10659;SDS011;5378;53.206;13.316;2022-11-15T16:37:35;42.80;;;15.10;;
10659;SDS011;5378;53.206;13.316;2022-11-15T16:40:24;40.67;;;15.57;;
10659;SDS011;5378;53.206;13.316;2022-11-15T16:43:13;46.70;;;16.53;;
10659;SDS011;5378;53.206;13.316;2022-11-15T16:46:06;46.90;;;17.00;;
10659;SDS011;5378;53.206;13.316;2022-11-15T16:48:57;48.23;;;16.07;;
10659;SDS011;5378;53.206;13.316;2022-11-15T16:51:45;54.00;;;18.37;;
10659;SDS011;5378;53.206;13.316;2022-11-15T16:54:32;52.77;;;17.53;;
10659;SDS011;5378;53.206;13.316;2022-11-15T16:57:19;43.20;;;16.43;;
10659;SDS011;5378;53.206;13.316;2022-11-15T17:00:07;62.43;;;17.97;;
10659;SDS011;5378;53.206;13.316;2022-11-15T17:02:58;49.20;;;18.47;;
10659;SDS011;5378;53.206;13.316;2022-11-15T17:05:45;51.60;;;18.03;;
10659;SDS011;5378;53.206;13.316;2022-11-15T17:08:32;60.00;;;18.47;;
10659;SDS011;5378;53.206;13.316;2022-11-15T17:11:20;60.33;;;17.50;;
10659;SDS011;5378;53.206;13.316;2022-11-15T17:14:08;65.23;;;19.00;;
10659;SDS011;5378;53.206;13.316;2022-11-15T17:16:55;61.70;;;20.07;;
10659;SDS011;5378;53.206;13.316;2022-11-15T17:19:44;59.17;;;19.30;;
10659;SDS011;5378;53.206;13.316;2022-11-15T17:22:31;59.57;;;20.07;;
10659;SDS011;5378;53.206;13.316;2022-11-15T17:25:18;59.40;;;18.27;;
10659;SDS011;5378;53.206;13.316;2022-11-15T17:28:05;54.30;;;18.27;;
10659;SDS011;5378;53.206;13.316;2022-11-15T17:30:52;49.77;;;17.93;;
10659;SDS011;5378;53.206;13.316;2022-11-15T17:33:39;51.47;;;19.30;;
10659;SDS011;5378;53.206;13.316;2022-11-15T17:36:27;48.70;;;18.47;;
10659;SDS011;5378;53.206;13.316;2022-11-15T17:39:15;51.23;;;17.57;;
10659;SDS011;5378;53.206;13.316;2022-11-15T17:42:03;54.13;;;18.20;;
10659;SDS011;5378;53.206;13.316;2022-11-15T17:44:50;46.53;;;17.70;;
10659;SDS011;5378;53.206;13.316;2022-11-15T17:47:37;42.70;;;16.30;;
10659;SDS011;5378;53.206;13.316;2022-11-15T17:50:24;45.50;;;18.13;;
10659;SDS011;5378;53.206;13.316;2022-11-15T17:53:12;51.00;;;17.00;;